Alamosa, Colorado
Current Conditions -  °F | °C
As of 1:52 AM on Friday 28 Nov 2014 (Local Time) from KALS Reporting Station
Clear Clear  
Wind Chill: -11°   Ceiling: Unl
Heat Index: -11°   Visibility: 10mi
Dew Point: -13°   Wind: 0mph
Humidity: 81%   Direction: NA
Pressure: 30.3"   Gusts: NA
Location:  37.47°N, 105.87°W
Report Text: KALS 280852Z AUTO 00000KT 10SM CLR M11/M13 A3030 RMK AO2 SLP266 T11061133 56008
Loading
Personal Weather Stations






























Interactive Weather Map New forecast layout! Learn more

10-Day Weather Forecast

Advertisements
Track Severe Weather on mobile